x

South Huron - 43nm East Of Oscoda, Mi (45008) Wave Buoy

6:50pm - Tue 27th Sep 2016 All times are CDT. -5 hours from GMT.

  • Sig Wave height 3.0ft
  • Swell Direction
  • Peak Period 5s
  • Average Period 4s
  • Wind
    22mph, 27mph gusts
  • Sea Temp 66°f
  • Air Temp 61°f
  • Sea Pressure 1006.5mb
  • South Huron - 43nm East Of Oscoda, Mi
  • South Huron - 43nm East Of Oscoda, Mi

More Historic Weather Station data

Upgrade to MSW Pro to gain access to the past 30 days of data for over 8000 Wavebouys and Weather Stations around the globe.

Join Pro

Comparision Forecast

View Surf forecast
   
Tue 09/27 6:50pm 3ft 5s 4s 22 27 mph 1006.5mb 66f 61f
5:50pm 3ft 5s 4s 22 27 mph 1005.9mb 66f 60f
4:50pm 4ft 6s 4s 16 20 mph 1005.5mb 66f 59f
3:50pm 4.5ft 5s 4s 18 22 mph 1004.7mb 66f 61f
2:50pm 4.5ft 6s 4s 16 20 mph 1004.5mb 66f 59f
1:50pm 4.5ft 5s 4s 25 27 mph 1003.8mb 66f 60f
12:50pm 4.5ft 5s 4s 20 25 mph 1003.6mb 66f 61f
11:50am 4.5ft 5s 5s 20 25 mph 1003.6mb 66f 61f
10:50am 4.5ft 5s 4s 22 27 mph 1003.8mb 66f 60f
9:50am 5ft 6s 5s 25 29 mph 1003.9mb 66f 59f
8:50am 5.5ft 5s 5s 25 29 mph 1003.8mb 66f 58f
7:50am 4.5ft 5s 4s 27 34 mph 1003.8mb 66f 58f
6:50am 4.5ft 5s 4s 25 29 mph 1004.3mb 67f 59f
5:50am 4.5ft 5s 4s 25 29 mph 1004.3mb 67f 59f
4:50am 4.5ft 5s 4s 25 29 mph 1004.7mb 67f 59f
3:50am 5ft 5s 4s 25 29 mph 1005.2mb 67f 59f
2:50am 5ft 5s 4s 22 27 mph 1005.9mb 67f 59f
1:50am 5ft 5s 4s 25 29 mph 1006.3mb 67f 59f
12:50am 5ft 4s 4s 27 31 mph 1006.4mb 67f 59f
Mon 09/26 11:50pm 5ft 6s 4s 29 36 mph 1006.6mb 67f 60f
10:50pm 5ft 6s 5s 27 31 mph 1007.2mb 67f 61f
9:50pm 5.5ft 6s 5s 25 29 mph 1007.8mb 67f 62f
8:50pm 6ft 6s 5s 29 38 mph 1008mb 67f 63f
7:50pm 5.5ft 6s 5s 27 36 mph 1008.3mb 67f 60f
6:50pm 6ft 6s 5s 29 34 mph 1008mb 67f 61f
5:50pm 5ft 6s 5s 29 36 mph 1007.6mb 67f 65f
4:50pm 5ft 5s 5s 25 34 mph 1007.5mb 67f 65f
3:50pm 5.5ft 6s 5s 25 29 mph 1007.2mb 67f 64f
2:50pm 5ft 6s 5s 25 29 mph 1007.6mb 67f 63f
1:50pm 5.5ft 6s 5s 29 36 mph 1007.2mb 68f 62f
12:50pm 5.5ft 5s 5s 27 34 mph 1007.4mb 68f 62f
11:50am 4.5ft 6s 4s 31 36 mph 1007.4mb 68f 63f
10:50am 3.5ft 6s 4s 25 31 mph 1007.7mb 68f 64f
9:50am 4ft 6s 5s 18 20 mph 1008.3mb 68f 64f
8:50am 4.5ft 6s 5s 16 20 mph 1008.2mb 68f 64f
7:50am 6ft 6s 5s 18 20 mph 1008.3mb 67f 64f
6:50am 7ft 7s 5s 22 27 mph 1008.2mb 67f 66f
5:50am 8ft 7s 5s 27 31 mph 1008.2mb 67f 66f
4:50am 8ft 7s 5s 29 34 mph 1008.7mb 67f 65f
3:50am 7ft 7s 5s 29 34 mph 1009.1mb 68f 65f
2:50am 7ft 7s 5s 27 34 mph 1010.9mb 68f 64f
1:50am 7ft 6s 5s 31 36 mph 1011.4mb 68f 65f
12:50am 6.5ft 6s 5s 29 34 mph 1012.7mb 68f 64f
Sun 09/25 11:50pm 4.5ft 5s 4s 27 34 mph 1014mb 68f 64f
10:50pm 4ft 5s 4s 25 29 mph 1015mb 68f 65f
9:50pm 3ft 4s 4s 25 29 mph 1015.7mb 68f 66f
8:50pm 2.5ft 4s 3s 22 27 mph 1016.4mb 68f 68f
7:50pm 2.5ft 4s 3s 18 20 mph 1016.9mb 68f 68f
6:50pm 2.5ft 4s 4s 20 25 mph 1016.9mb 68f 67f
5:50pm 2ft 4s 4s 18 20 mph 1017.5mb 68f 67f
4:50pm 2.5ft 4s 4s 18 22 mph 1017.9mb 68f 66f
3:50pm 2.5ft 4s 4s 18 20 mph 1019mb 68f 65f
2:50pm 2.5ft 4s 4s 18 20 mph 1019.6mb 68f 64f
1:50pm 2.5ft 5s 4s 16 20 mph 1020.8mb 68f 64f
12:50pm 2.5ft 5s 4s 16 18 mph 1021.7mb 68f 64f
11:50am 2.5ft 5s 4s 16 18 mph 1022.1mb 68f 63f
10:50am 2.5ft 4s 4s 16 20 mph 1022.5mb 68f 62f
9:50am 2ft 4s 3s 13 18 mph 1022.9mb 68f 62f
8:50am 2ft 4s 3s 13 18 mph 1023mb 68f 62f
7:50am 2ft 3s 3s 13 18 mph 1023.3mb 68f 62f
6:50am 1.6ft 4s 3s 13 18 mph 1023.1mb 68f 61f
5:50am 2ft 4s 3s 11 16 mph 1023.2mb 68f 60f
4:50am 2ft 4s 3s 13 18 mph 1023mb 68f 60f
3:50am 1.6ft 3s 3s 16 18 mph 1022.9mb 68f 60f
2:50am 1.3ft 3s 3s 16 20 mph 1023.1mb 68f 60f
1:50am 1ft 3s 3s 11 16 mph 1024mb 68f 61f
12:50am 1ft 3s 3s 11 13 mph 1023.8mb 68f 61f
Sat 09/24 11:50pm 1ft 3s 3s 11 13 mph 1024.1mb 68f 62f
10:50pm 1ft 3s 3s 11 13 mph 1024mb 68f 62f
9:50pm 1ft 3s 3s 11 13 mph 1023.9mb 68f 61f
8:50pm 0.7ft  -  3s 11 16 mph 1023.9mb 68f 61f
7:50pm 1ft 2s 3s 11 13 mph 1023.8mb 68f 61f
6:50pm 0.7ft  -  3s 9 13 mph 1023.9mb 68f 61f
5:50pm 1ft 3s 3s 11 13 mph 1024.2mb 69f 61f
4:50pm 1ft 3s 3s 9 11 mph 1024.3mb 69f 61f
3:50pm 1ft 4s 3s 9 13 mph 1024.4mb 69f 60f
2:50pm 1.3ft 4s 3s 11 13 mph 1024.6mb 69f 60f
1:50pm 1.3ft 4s 3s 9 13 mph 1025.1mb 69f 59f
12:50pm 1.6ft 4s 3s 9 13 mph 1025.7mb 69f 59f
11:50am 1.6ft 4s 3s 11 13 mph 1025.9mb 68f 59f
10:50am 1.6ft 4s 3s 11 16 mph 1026.2mb 68f 58f
9:50am 1.6ft 4s 3s 13 18 mph 1026.1mb 68f 59f
8:50am 1.6ft 4s 3s 11 16 mph 1025.9mb 68f 59f
7:50am 1.6ft 4s 3s 11 16 mph 1025.5mb 68f 59f
6:50am 2ft 4s 4s 11 16 mph 1025mb 68f 59f
5:50am 2ft 5s 4s 13 20 mph 1024.1mb 68f 59f
4:50am 2.5ft 5s 4s 13 18 mph 1023.7mb 68f 59f
3:50am 2.5ft 5s 4s 13 18 mph 1023.5mb 68f 59f
2:50am 3ft 5s 4s 16 22 mph 1023.3mb 68f 59f
1:50am 3ft 5s 4s 13 20 mph 1023.2mb 68f 59f
12:50am 3.5ft 5s 4s 16 22 mph 1023.1mb 68f 60f